Mapledurham 10
Skip Navigation Links
Results
Live Leaderboard
MST Races
Event Stats
Smartphone Results
2 Dec 2018
HyperLink
click on your name for more detailed race data
Page 1 of 6 (259 items)
[1]23456
Pos
Bib No
Fav
Share
Print
Name
Gun Time
Chip Time
Category
Cat Pos
Gender
Gen Pos
Club
Dist
Pace
147Rob CORNEY58:03.958:03.3Top 31Male1READING ROAD RUNNERS1010.3 m/hr
295Ian GOSLING1:03:42.11:03:41.0Top 32Male2BRACKNELL FOREST RUNNERS10 9.4 m/hr
3247Chris SHANNON1:03:48.51:03:47.0Top 33Male3READING ROAD RUNNERS10 9.4 m/hr
4191Laurence Miles1:03:58.61:03:56.040-491Male4MAIDENHEAD AC10 9.4 m/hr
5246Kevin SHANNON1:04:21.81:04:20.3Under 401Male5 10 9.3 m/hr
696Simon GOUGH1:05:09.81:05:07.7Under 402Male6 10 9.2 m/hr
760Adam DART1:05:37.51:05:36.5Under 403Male7BRACKNELL AC10 9.1 m/hr
898James GREEN1:06:06.21:05:43.840-492Male8 10 9.1 m/hr
9293Alex WARNER1:07:06.31:07:05.5Under 404Male9READING ROAD RUNNERS10 8.9 m/hr
10210Alec PARCELL1:09:29.61:09:27.9Under 405Male10 10 8.6 m/hr
11159David KIRK1:09:37.21:09:34.9Under 406Male11READING AC10 8.6 m/hr
12197Andy MORGAN1:10:01.51:10:00.440-493Male12READING ROAD RUNNERS10 8.6 m/hr
13156Jon KELLY1:10:07.21:09:59.640-494Male13 10 8.6 m/hr
1461Mark DAVIDSON1:10:25.11:10:21.340-495Male14 10 8.5 m/hr
15218Paul PERRATT1:10:35.91:10:33.540-496Male15 10 8.5 m/hr
1693George GEORGHIOU1:10:44.81:10:43.8Under 407Male16 10 8.5 m/hr
17263Sean STEWART1:10:46.11:10:44.550-591Male17TRI2010 8.5 m/hr
18199Ryan MORRIS1:11:33.31:11:30.140-497Male18COMPTON HARRIERS RC10 8.4 m/hr
1940Harriet CHETTLEBURGH1:11:46.71:11:44.2Top 31Female1TRI2010 8.4 m/hr
20285Tony WALKER1:11:51.11:11:48.740-498Male19TRI2010 8.4 m/hr
21207Nick ONSLOW1:11:59.61:11:58.140-499Male20BRAMLEY TRAIL RUNNERS10 8.3 m/hr
22213Stephen PATE1:12:18.11:12:13.940-4910Male21 10 8.3 m/hr
23294James WARREN1:12:21.81:12:19.3Under 408Male22 10 8.3 m/hr
24310Owain ZERILLI1:12:37.31:12:35.4Under 409Male23 10 8.3 m/hr
2538Chris CALLOW1:13:02.01:13:00.040-4911Male24KINGS HEATH RUNNING CLUB10 8.2 m/hr
26230Lee PROUT1:13:02.11:13:00.2Under 4010Male25 10 8.2 m/hr
2742Richard COATES1:13:46.21:13:42.040-4912Male26TRI2010 8.1 m/hr
28224Keith PHILLIPS1:13:58.01:13:53.2Under 4011Male27BRACKNELL FOREST RUNNERS10 8.1 m/hr
29101Jonny GUBB1:14:05.61:14:00.740-4913Male28TRI2010 8.1 m/hr
3089Vanessa FURSDEN1:14:18.61:13:49.5Top 32Female2 10 8.1 m/hr
31258Lee SPRITE1:14:20.31:14:17.150-592Male29 10 8.1 m/hr
32265Samuel STOKES1:14:24.11:14:20.7Under 4012Male30 10 8.1 m/hr
33100Mike GRINSTED1:14:58.41:14:41.040-4914Male31READING ROAD RUNNERS10 8.0 m/hr
34189Eoin MCLEOD1:15:05.71:15:01.740-4915Male32 10 8.0 m/hr
35130Nick HOPPER1:15:27.81:15:23.3Under 4013Male33 10 8.0 m/hr
36117David HATHAWAY1:15:36.91:15:27.350-593Male34 10 7.9 m/hr
37235George REICH1:15:40.61:15:35.140-4916Male35READING AC10 7.9 m/hr
38228William PLATT1:15:57.91:15:54.2Under 4014Male36THE SITUATION APPRECIATION SOCIETY10 7.9 m/hr
39252Paul SLOMAN1:16:13.61:16:07.9Under 4015Male37 10 7.9 m/hr
40140Neil HUNT1:16:52.61:16:38.740-4917Male38 10 7.8 m/hr
411Paul ABERSON1:16:56.51:16:27.9Under 4016Male39EVO TRI CLUB10 7.8 m/hr
4220William BINGHAM1:17:03.21:17:00.1Under 4017Male40 10 7.8 m/hr
43172Edward LEWIS-PARRY1:17:18.31:17:05.9Under 4018Male41 10 7.8 m/hr
44150David JONES1:17:19.11:17:12.940-4918Male42 10 7.8 m/hr
4592Emily GARVEY1:17:26.21:17:23.3Top 33Female3 10 7.7 m/hr
46151Russell JONES1:17:26.41:17:05.940-4919Male43 10 7.7 m/hr
47249James SIFTON1:17:46.61:17:26.040-4920Male44 10 7.7 m/hr
48240Nick ROBINSON1:17:57.61:17:52.240-4921Male45 10 7.7 m/hr
49103Marc GUDGEON1:18:00.01:17:33.540-4922Male46 10 7.7 m/hr
50222Huw PHILLIPS1:18:04.01:17:57.540-4923Male47 10 7.7 m/hr
Page 1 of 6 (259 items)
[1]23456
fb

HyperLink Copyright (c) G Vincent, 2018